createdAt,value
2017-05-08T00:00:37.177Z,20.64
2017-05-08T00:01:47.137Z,20.71
2017-05-08T00:02:57.109Z,20.67
2017-05-08T00:04:07.389Z,20.71
2017-05-08T00:05:17.925Z,20.7
2017-05-08T00:06:28.200Z,20.66
2017-05-08T00:07:38.487Z,20.67
2017-05-08T00:08:48.473Z,20.7
2017-05-08T00:09:58.766Z,20.63
2017-05-08T00:11:08.709Z,20.64
2017-05-08T00:12:18.671Z,20.68
2017-05-08T00:13:28.648Z,20.64
2017-05-08T00:14:38.621Z,20.64
2017-05-08T00:15:48.902Z,20.68
2017-05-08T00:16:59.119Z,20.6
2017-05-08T00:18:09.400Z,20.6
2017-05-08T00:19:19.693Z,20.63
2017-05-08T00:20:29.662Z,20.67
2017-05-08T00:21:39.949Z,20.64
2017-05-08T00:22:50.567Z,20.6
2017-05-08T00:24:00.889Z,20.64
2017-05-08T00:25:11.198Z,20.59
2017-05-08T00:26:21.503Z,20.64
2017-05-08T00:27:31.477Z,20.67
2017-05-08T00:28:42.012Z,20.66
2017-05-08T00:29:52.301Z,20.64
2017-05-08T00:31:02.586Z,20.59
2017-05-08T00:32:12.864Z,20.66
2017-05-08T00:33:23.181Z,20.6
2017-05-08T00:34:33.714Z,20.67
2017-05-08T00:35:43.997Z,20.64
2017-05-08T00:36:53.962Z,20.66
2017-05-08T00:38:03.938Z,20.64
2017-05-08T00:39:14.230Z,20.64
2017-05-08T00:40:24.763Z,20.7
2017-05-08T00:41:35.040Z,20.66
2017-05-08T00:42:45.316Z,20.68
2017-05-08T00:43:55.600Z,20.6
2017-05-08T00:45:05.879Z,20.67
2017-05-08T00:46:16.412Z,20.64
2017-05-08T00:47:26.690Z,20.58
2017-05-08T00:48:36.984Z,20.64
2017-05-08T00:49:47.268Z,20.64
2017-05-08T00:50:57.244Z,20.67
2017-05-08T00:52:07.795Z,20.67
2017-05-08T00:53:17.803Z,20.63
2017-05-08T00:54:27.782Z,20.6
2017-05-08T00:55:38.069Z,20.64
2017-05-08T00:56:48.349Z,20.59
2017-05-08T00:57:58.938Z,20.64
2017-05-08T00:59:09.218Z,20.6
2017-05-08T01:00:19.496Z,20.56
2017-05-08T01:01:29.789Z,20.56
2017-05-08T01:02:40.075Z,20.59
2017-05-08T01:03:50.597Z,20.66
2017-05-08T01:05:00.561Z,20.56
2017-05-08T01:06:10.847Z,20.63
2017-05-08T01:07:21.136Z,20.63
2017-05-08T01:08:31.415Z,20.6
2017-05-08T01:09:41.950Z,20.56
2017-05-08T01:10:52.233Z,20.59
2017-05-08T01:12:02.205Z,20.55
2017-05-08T01:13:12.487Z,20.58
2017-05-08T01:14:22.793Z,20.56
2017-05-08T01:15:33.014Z,20.6
2017-05-08T01:16:43.302Z,20.55
2017-05-08T01:17:53.584Z,20.53
2017-05-08T01:19:03.562Z,20.52
2017-05-08T01:20:13.563Z,20.53
2017-05-08T01:21:24.102Z,20.53
2017-05-08T01:22:34.391Z,20.58
2017-05-08T01:23:44.665Z,20.55
2017-05-08T01:24:54.972Z,20.56
2017-05-08T01:26:04.940Z,20.55
2017-05-08T01:27:15.470Z,20.55
2017-05-08T01:28:25.442Z,20.53
2017-05-08T01:29:35.718Z,20.58
2017-05-08T01:30:45.992Z,20.55
2017-05-08T01:31:56.275Z,20.49
2017-05-08T01:33:06.507Z,20.49
2017-05-08T01:34:16.780Z,20.48
2017-05-08T01:35:27.057Z,20.55
2017-05-08T01:36:37.066Z,20.5
2017-05-08T01:37:47.032Z,20.48
2017-05-08T01:38:57.563Z,20.58
2017-05-08T01:40:07.536Z,20.48
2017-05-08T01:41:17.809Z,20.52
2017-05-08T01:42:27.799Z,20.55
2017-05-08T01:43:38.070Z,20.49
2017-05-08T01:44:48.635Z,20.52
2017-05-08T01:45:58.918Z,20.44
2017-05-08T01:47:09.195Z,20.42
2017-05-08T01:48:19.475Z,20.53
2017-05-08T01:49:29.762Z,20.5
2017-05-08T01:50:40.292Z,20.5
2017-05-08T01:51:50.253Z,20.4
2017-05-08T01:53:00.536Z,20.53
2017-05-08T01:54:10.819Z,20.55
2017-05-08T01:55:20.790Z,20.52
2017-05-08T01:56:31.339Z,20.49
2017-05-08T01:57:41.620Z,20.44
2017-05-08T01:58:51.923Z,20.5
2017-05-08T02:00:02.199Z,20.53
2017-05-08T02:01:12.474Z,20.5
2017-05-08T02:02:23.047Z,20.46
2017-05-08T02:03:33.328Z,20.53
2017-05-08T02:04:43.612Z,20.48
2017-05-08T02:05:53.581Z,20.49
2017-05-08T02:07:03.558Z,20.56
2017-05-08T02:08:14.099Z,20.53
2017-05-08T02:09:24.377Z,20.56
2017-05-08T02:10:34.349Z,20.42
2017-05-08T02:11:44.630Z,20.46
2017-05-08T02:12:55.258Z,20.44
2017-05-08T02:14:05.177Z,20.48
2017-05-08T02:15:15.465Z,20.49
2017-05-08T02:16:25.433Z,20.52
2017-05-08T02:17:35.712Z,20.5
2017-05-08T02:18:45.988Z,20.49
2017-05-08T02:19:56.206Z,20.48
2017-05-08T02:21:06.214Z,20.52
2017-05-08T02:22:16.488Z,20.48
2017-05-08T02:23:26.765Z,20.44
2017-05-08T02:24:37.057Z,20.53
2017-05-08T02:25:46.958Z,20.52
2017-05-08T02:26:56.935Z,20.53
2017-05-08T02:28:07.224Z,20.5
2017-05-08T02:29:17.503Z,20.5
2017-05-08T02:30:27.785Z,20.42
2017-05-08T02:31:38.322Z,20.49
2017-05-08T02:32:48.597Z,20.49
2017-05-08T02:33:58.572Z,20.46
2017-05-08T02:35:08.551Z,20.5
2017-05-08T02:36:18.838Z,20.48
2017-05-08T02:37:29.375Z,20.5
2017-05-08T02:38:39.342Z,20.53
2017-05-08T02:39:49.326Z,20.4
2017-05-08T02:40:59.612Z,20.53
2017-05-08T02:42:09.899Z,20.49
2017-05-08T02:43:20.438Z,20.48
2017-05-08T02:44:30.727Z,20.48
2017-05-08T02:45:41.004Z,20.4
2017-05-08T02:46:51.285Z,20.42
2017-05-08T02:48:01.569Z,20.53
2017-05-08T02:49:11.798Z,20.4
2017-05-08T02:50:22.071Z,20.4
2017-05-08T02:51:32.349Z,20.37
2017-05-08T02:52:42.644Z,20.32
2017-05-08T02:53:52.933Z,20.4
2017-05-08T02:55:03.478Z,20.46
2017-05-08T02:56:13.776Z,20.46
2017-05-08T02:57:23.739Z,20.39
2017-05-08T02:58:33.706Z,20.44
2017-05-08T02:59:44.039Z,20.44
2017-05-08T03:00:54.569Z,20.46
2017-05-08T03:02:04.848Z,20.44
2017-05-08T03:03:15.128Z,20.44
2017-05-08T03:04:25.409Z,20.4
2017-05-08T03:05:35.697Z,20.42
2017-05-08T03:06:45.972Z,20.3
2017-05-08T03:07:56.264Z,20.39
2017-05-08T03:09:05.608Z,20.49
2017-05-08T03:10:15.593Z,20.32
2017-05-08T03:11:25.880Z,20.42
2017-05-08T03:12:36.407Z,20.46
2017-05-08T03:13:46.383Z,20.44
2017-05-08T03:14:56.685Z,20.33
2017-05-08T03:16:06.968Z,20.48
2017-05-08T03:17:16.937Z,20.3
2017-05-08T03:18:27.478Z,20.33
2017-05-08T03:19:37.765Z,20.44
2017-05-08T03:20:48.041Z,20.42
2017-05-08T03:21:58.317Z,20.46
2017-05-08T03:23:08.611Z,20.32
2017-05-08T03:24:18.840Z,20.32
2017-05-08T03:25:29.120Z,20.4
2017-05-08T03:26:39.403Z,20.3
2017-05-08T03:27:49.930Z,20.4
2017-05-08T03:28:59.898Z,20.44
2017-05-08T03:30:10.422Z,20.34
2017-05-08T03:31:20.707Z,20.32
2017-05-08T03:32:30.986Z,20.29
2017-05-08T03:33:40.954Z,20.32
2017-05-08T03:34:51.230Z,20.4
2017-05-08T03:36:01.763Z,20.4
2017-05-08T03:37:12.036Z,20.42
2017-05-08T03:38:22.000Z,20.4
2017-05-08T03:39:32.293Z,20.32
2017-05-08T03:40:42.266Z,20.33
2017-05-08T03:41:52.794Z,20.37
2017-05-08T03:43:03.087Z,20.37
2017-05-08T03:44:13.402Z,20.4
2017-05-08T03:45:23.684Z,20.46
2017-05-08T03:46:33.956Z,20.42
2017-05-08T03:47:44.178Z,20.44
2017-05-08T03:48:54.476Z,20.44
2017-05-08T03:50:04.762Z,20.29
2017-05-08T03:51:14.724Z,20.32
2017-05-08T03:52:25.000Z,20.42
2017-05-08T03:53:35.210Z,20.32
2017-05-08T03:54:45.493Z,20.4
2017-05-08T03:55:55.451Z,20.49
2017-05-08T03:57:05.841Z,20.44
2017-05-08T03:58:16.122Z,20.42
2017-05-08T03:59:26.688Z,20.29
2017-05-08T04:00:36.967Z,20.39
2017-05-08T04:01:47.260Z,20.33
2017-05-08T04:02:57.541Z,20.44
2017-05-08T04:04:07.819Z,20.42
2017-05-08T04:05:18.357Z,20.46
2017-05-08T04:06:28.662Z,20.39
2017-05-08T04:07:38.634Z,20.42
2017-05-08T04:08:48.912Z,20.48
2017-05-08T04:09:58.897Z,20.42
2017-05-08T04:11:09.436Z,20.53
2017-05-08T04:12:19.095Z,20.5
2017-05-08T04:13:29.376Z,20.53
2017-05-08T04:14:39.662Z,20.5
2017-05-08T04:15:49.628Z,20.52
2017-05-08T04:16:59.533Z,20.48
2017-05-08T04:18:09.816Z,20.53
2017-05-08T04:19:20.114Z,20.53
2017-05-08T04:20:30.389Z,20.46
2017-05-08T04:21:40.678Z,20.49
2017-05-08T04:22:51.211Z,20.44
2017-05-08T04:24:01.490Z,20.52
2017-05-08T04:25:11.764Z,20.46
2017-05-08T04:26:22.045Z,20.48
2017-05-08T04:27:32.018Z,20.48
2017-05-08T04:28:42.553Z,20.44
2017-05-08T04:29:52.838Z,20.5
2017-05-08T04:31:03.126Z,20.46
2017-05-08T04:32:13.404Z,20.44
2017-05-08T04:33:23.690Z,20.44
2017-05-08T04:34:34.241Z,20.5
2017-05-08T04:35:44.565Z,20.53
2017-05-08T04:36:54.231Z,20.56
2017-05-08T04:38:04.507Z,20.5
2017-05-08T04:39:14.472Z,20.44
2017-05-08T04:40:24.716Z,20.49
2017-05-08T04:41:34.411Z,20.46
2017-05-08T04:42:44.690Z,20.53
2017-05-08T04:43:54.975Z,20.52
2017-05-08T04:45:05.263Z,20.5
2017-05-08T04:46:15.480Z,20.46
2017-05-08T04:47:25.147Z,20.56
2017-05-08T04:48:35.435Z,20.52
2017-05-08T04:49:45.398Z,20.44
2017-05-08T04:50:55.367Z,20.48
2017-05-08T04:52:05.579Z,20.46
2017-05-08T04:53:15.870Z,20.48
2017-05-08T04:54:25.838Z,20.46
2017-05-08T04:55:36.132Z,20.56
2017-05-08T04:56:46.411Z,20.52
2017-05-08T04:57:56.945Z,20.46
2017-05-08T04:59:07.233Z,20.5
2017-05-08T05:00:17.524Z,20.46
2017-05-08T05:01:27.497Z,20.49
2017-05-08T05:02:37.514Z,20.46
2017-05-08T05:03:48.058Z,20.53
2017-05-08T05:04:57.724Z,20.53
2017-05-08T05:06:07.998Z,20.48
2017-05-08T05:07:18.282Z,20.53
2017-05-08T05:08:28.259Z,20.5
2017-05-08T05:09:38.482Z,20.46
2017-05-08T05:10:48.764Z,20.53
2017-05-08T05:11:59.044Z,20.52
2017-05-08T05:13:09.021Z,20.46
2017-05-08T05:14:19.305Z,20.49
2017-05-08T05:15:29.858Z,20.46
2017-05-08T05:16:39.820Z,20.46
2017-05-08T05:17:50.098Z,20.48
2017-05-08T05:19:00.377Z,20.5
2017-05-08T05:20:10.667Z,20.53
2017-05-08T05:21:20.582Z,20.5
2017-05-08T05:22:30.862Z,20.5
2017-05-08T05:23:40.532Z,20.48
2017-05-08T05:24:50.816Z,20.52
2017-05-08T05:26:01.106Z,20.53
2017-05-08T05:27:11.648Z,20.53
2017-05-08T05:28:21.630Z,20.59
2017-05-08T05:29:31.918Z,20.52
2017-05-08T05:30:42.205Z,20.56
2017-05-08T05:31:52.491Z,20.53
2017-05-08T05:33:03.027Z,20.53
2017-05-08T05:34:13.006Z,20.5
2017-05-08T05:35:23.314Z,20.48
2017-05-08T05:36:33.595Z,20.44
2017-05-08T05:37:43.594Z,20.44
2017-05-08T05:38:53.832Z,20.52
2017-05-08T05:40:04.138Z,20.55
2017-05-08T05:41:14.419Z,20.52
2017-05-08T05:42:24.706Z,20.56
2017-05-08T05:43:34.992Z,20.5
2017-05-08T05:44:45.216Z,20.46
2017-05-08T05:45:55.512Z,20.53
2017-05-08T05:47:05.490Z,20.55
2017-05-08T05:48:15.776Z,20.53
2017-05-08T05:49:26.077Z,20.49
2017-05-08T05:50:36.664Z,20.46
2017-05-08T05:51:46.651Z,20.49
2017-05-08T05:52:56.642Z,20.5
2017-05-08T05:54:06.931Z,20.53
2017-05-08T05:55:17.208Z,20.52
2017-05-08T05:56:27.439Z,20.46
2017-05-08T05:57:37.726Z,20.49
2017-05-08T05:58:48.005Z,20.48
2017-05-08T05:59:57.667Z,20.52
2017-05-08T06:01:07.961Z,20.46
2017-05-08T06:02:18.503Z,20.55
2017-05-08T06:03:28.474Z,20.55
2017-05-08T06:04:38.769Z,20.52
2017-05-08T06:05:49.012Z,20.55
2017-05-08T06:06:59.315Z,20.52
2017-05-08T06:08:09.859Z,20.5
2017-05-08T06:09:20.149Z,20.55
2017-05-08T06:10:30.148Z,20.53
2017-05-08T06:11:40.427Z,20.48
2017-05-08T06:12:50.163Z,20.5
2017-05-08T06:14:00.904Z,20.5
2017-05-08T06:15:10.883Z,20.44
2017-05-08T06:16:21.183Z,20.48
2017-05-08T06:17:31.479Z,20.52
2017-05-08T06:18:41.225Z,20.48
2017-05-08T06:19:51.770Z,20.49
2017-05-08T06:21:02.092Z,20.5
2017-05-08T06:22:12.407Z,20.52
2017-05-08T06:23:22.707Z,20.5
2017-05-08T06:24:32.700Z,20.49
2017-05-08T06:25:43.241Z,20.5
2017-05-08T06:26:53.538Z,20.46
2017-05-08T06:28:03.525Z,20.56
2017-05-08T06:29:13.831Z,20.46
2017-05-08T06:30:23.814Z,20.56
2017-05-08T06:31:34.361Z,20.49
2017-05-08T06:32:44.350Z,20.56
2017-05-08T06:33:54.645Z,20.5
2017-05-08T06:35:04.927Z,20.44
2017-05-08T06:36:15.221Z,20.58
2017-05-08T06:37:25.457Z,20.52
2017-05-08T06:38:35.779Z,20.52
2017-05-08T06:39:46.134Z,20.48
2017-05-08T06:40:56.519Z,20.55
2017-05-08T06:42:06.886Z,20.53
2017-05-08T06:43:17.184Z,20.46
2017-05-08T06:44:27.533Z,20.5
2017-05-08T06:45:37.843Z,20.56
2017-05-08T06:46:47.215Z,20.49
2017-05-08T06:47:57.502Z,20.55
2017-05-08T06:49:07.749Z,20.56
2017-05-08T06:50:18.058Z,20.55
2017-05-08T06:51:28.370Z,20.55
2017-05-08T06:52:38.345Z,20.55
2017-05-08T06:53:48.638Z,20.52
2017-05-08T06:54:59.187Z,20.6
2017-05-08T06:56:09.486Z,20.55
2017-05-08T06:57:19.473Z,20.53
2017-05-08T06:58:29.784Z,20.55
2017-05-08T06:59:40.078Z,20.52
2017-05-08T07:00:50.656Z,20.56
2017-05-08T07:02:00.944Z,20.55
2017-05-08T07:03:10.925Z,20.55
2017-05-08T07:04:20.922Z,20.56
2017-05-08T07:05:31.245Z,20.55
2017-05-08T07:06:41.472Z,20.55
2017-05-08T07:07:51.769Z,20.55
2017-05-08T07:09:02.060Z,20.48
2017-05-08T07:10:12.079Z,20.55
2017-05-08T07:11:22.060Z,20.52
2017-05-08T07:12:33.034Z,20.55
2017-05-08T07:13:43.341Z,20.52
2017-05-08T07:14:53.421Z,20.56
2017-05-08T07:16:03.736Z,20.58
2017-05-08T07:17:14.046Z,20.6
2017-05-08T07:18:24.597Z,20.6
2017-05-08T07:19:34.886Z,20.64
2017-05-08T07:20:44.886Z,20.67
2017-05-08T07:21:54.313Z,20.63
2017-05-08T07:23:04.639Z,20.59
2017-05-08T07:24:15.172Z,20.66
2017-05-08T07:25:25.466Z,20.67
2017-05-08T07:26:35.720Z,20.7
2017-05-08T07:27:45.702Z,20.75
2017-05-08T07:28:55.983Z,20.71
2017-05-08T07:30:06.529Z,20.68
2017-05-08T07:31:15.883Z,20.7
2017-05-08T07:32:25.863Z,20.66
2017-05-08T07:33:36.165Z,20.71
2017-05-08T07:34:46.456Z,20.71
2017-05-08T07:35:57.007Z,20.64
2017-05-08T07:37:07.304Z,20.74
2017-05-08T07:38:16.970Z,20.73
2017-05-08T07:39:27.261Z,20.75
2017-05-08T07:40:37.282Z,20.73
2017-05-08T07:41:47.517Z,20.7
2017-05-08T07:42:57.523Z,20.73
2017-05-08T07:44:07.511Z,20.77
2017-05-08T07:45:17.843Z,20.71
2017-05-08T07:46:28.136Z,20.77
2017-05-08T07:47:38.682Z,20.7
2017-05-08T07:48:48.986Z,20.74
2017-05-08T07:49:58.659Z,20.78
2017-05-08T07:51:08.952Z,20.73
2017-05-08T07:52:18.625Z,20.75
2017-05-08T07:53:28.548Z,20.73
2017-05-08T07:54:38.548Z,20.78
2017-05-08T07:55:48.563Z,20.77
2017-05-08T07:56:59.032Z,20.71
2017-05-08T07:58:09.331Z,20.74
2017-05-08T07:59:19.874Z,20.74
2017-05-08T08:00:30.223Z,20.74
2017-05-08T08:01:40.523Z,20.74
2017-05-08T08:02:50.878Z,20.8
2017-05-08T08:04:00.954Z,20.74
2017-05-08T08:05:11.193Z,20.73
2017-05-08T08:06:21.483Z,20.82
2017-05-08T08:07:31.770Z,20.74
2017-05-08T08:08:42.075Z,20.75
2017-05-08T08:09:52.057Z,20.73
2017-05-08T08:11:02.318Z,20.8
2017-05-08T08:12:12.618Z,20.75
2017-05-08T08:13:22.600Z,20.77
2017-05-08T08:14:32.594Z,20.8
2017-05-08T08:15:42.891Z,20.74
2017-05-08T08:16:53.491Z,20.78
2017-05-08T08:18:03.785Z,20.7
2017-05-08T08:19:14.084Z,20.74
2017-05-08T08:20:24.441Z,20.73
2017-05-08T08:21:34.404Z,20.67
2017-05-08T08:22:44.977Z,20.74
2017-05-08T08:23:54.973Z,20.7
2017-05-08T08:25:04.661Z,20.82
2017-05-08T08:26:14.969Z,20.82
2017-05-08T08:27:24.658Z,20.73
2017-05-08T08:28:35.199Z,20.75
2017-05-08T08:29:45.492Z,20.68
2017-05-08T08:30:55.798Z,20.68
2017-05-08T08:32:05.787Z,20.73
2017-05-08T08:33:15.770Z,20.75
2017-05-08T08:34:26.318Z,20.78
2017-05-08T08:35:36.309Z,20.77
2017-05-08T08:36:46.610Z,20.75
2017-05-08T08:37:56.947Z,20.75
2017-05-08T08:39:06.970Z,20.68
2017-05-08T08:40:17.213Z,20.74
2017-05-08T08:41:27.544Z,20.7
2017-05-08T08:42:37.836Z,20.7
2017-05-08T08:43:48.128Z,20.75
2017-05-08T08:44:58.105Z,20.64
2017-05-08T08:46:08.340Z,20.67
2017-05-08T08:47:18.641Z,20.7
2017-05-08T08:48:28.630Z,20.68
2017-05-08T08:49:38.986Z,20.73
2017-05-08T08:50:48.977Z,20.64
2017-05-08T08:51:58.925Z,20.77
2017-05-08T08:53:09.214Z,20.68
2017-05-08T08:54:19.222Z,20.71
2017-05-08T08:55:29.514Z,20.74
2017-05-08T08:56:39.814Z,20.7
2017-05-08T08:57:50.095Z,20.75
2017-05-08T08:58:59.796Z,20.73
2017-05-08T09:00:09.782Z,20.74
2017-05-08T09:01:19.147Z,20.75
2017-05-08T09:02:29.443Z,20.75
2017-05-08T09:03:39.698Z,20.78
2017-05-08T09:04:49.699Z,20.8
2017-05-08T09:05:59.980Z,20.8
2017-05-08T09:07:09.989Z,20.75
2017-05-08T09:08:19.972Z,20.75
2017-05-08T09:09:30.549Z,20.78
2017-05-08T09:10:40.236Z,20.78
2017-05-08T09:11:50.523Z,20.75
2017-05-08T09:13:00.542Z,20.77
2017-05-08T09:14:10.767Z,20.75
2017-05-08T09:15:21.013Z,20.74
2017-05-08T09:16:31.342Z,20.77
2017-05-08T09:17:41.361Z,20.74
2017-05-08T09:18:51.673Z,20.77
2017-05-08T09:20:01.985Z,20.74
2017-05-08T09:21:12.229Z,20.82
2017-05-08T09:22:22.522Z,20.85
2017-05-08T09:23:32.825Z,20.85
2017-05-08T09:24:43.122Z,20.82
2017-05-08T09:25:53.412Z,20.74
2017-05-08T09:27:03.640Z,20.85
2017-05-08T09:28:13.621Z,20.77
2017-05-08T09:29:23.907Z,20.74
2017-05-08T09:30:33.884Z,20.78
2017-05-08T09:31:44.198Z,20.83
2017-05-08T09:32:54.744Z,20.85
2017-05-08T09:34:05.280Z,20.85
2017-05-08T09:35:15.612Z,20.89
2017-05-08T09:36:25.866Z,20.86
2017-05-08T09:37:35.850Z,20.93
2017-05-08T09:38:46.394Z,20.86
2017-05-08T09:39:56.974Z,20.89
2017-05-08T09:41:07.322Z,20.89
2017-05-08T09:42:17.705Z,20.92
2017-05-08T09:43:28.510Z,20.89
2017-05-08T09:44:38.738Z,20.92
2017-05-08T09:45:48.984Z,21.01
2017-05-08T09:46:59.575Z,21
2017-05-08T09:48:09.573Z,21
2017-05-08T09:49:19.904Z,20.93
2017-05-08T09:50:30.157Z,21.03
2017-05-08T09:51:40.512Z,21.01
2017-05-08T09:52:50.513Z,20.89
2017-05-08T09:54:00.819Z,20.89
2017-05-08T09:55:11.139Z,20.95
2017-05-08T09:56:21.414Z,21
2017-05-08T09:57:31.453Z,20.95
2017-05-08T09:58:41.853Z,21
2017-05-08T09:59:52.437Z,21.05
2017-05-08T10:01:02.726Z,21
2017-05-08T10:02:13.275Z,21.13
2017-05-08T10:03:23.602Z,21.08
2017-05-08T10:04:33.647Z,21.07
2017-05-08T10:05:43.697Z,21.1
2017-05-08T10:06:53.999Z,21.1
2017-05-08T10:08:04.564Z,21.1
2017-05-08T10:09:14.631Z,21
2017-05-08T10:10:24.703Z,21.13
2017-05-08T10:11:35.312Z,20.96
2017-05-08T10:12:45.725Z,21.01
2017-05-08T10:13:56.596Z,21
2017-05-08T10:15:06.657Z,21
2017-05-08T10:16:16.987Z,21.07
2017-05-08T10:17:27.003Z,21
2017-05-08T10:18:37.035Z,21.05
2017-05-08T10:19:47.578Z,21.01
2017-05-08T10:20:57.246Z,21.1
2017-05-08T10:22:07.550Z,21.05
2017-05-08T10:23:17.898Z,21.05
2017-05-08T10:24:28.267Z,20.96
2017-05-08T10:25:38.833Z,20.95
2017-05-08T10:26:49.250Z,21
2017-05-08T10:27:59.600Z,20.92
2017-05-08T10:29:09.887Z,20.92
2017-05-08T10:30:20.203Z,21
2017-05-08T10:31:30.455Z,20.89
2017-05-08T10:32:40.467Z,21.03
2017-05-08T10:33:50.525Z,20.93
2017-05-08T10:35:00.512Z,20.89
2017-05-08T10:36:10.218Z,20.9
2017-05-08T10:37:20.136Z,20.93
2017-05-08T10:38:30.128Z,20.92
2017-05-08T10:39:40.420Z,20.92
2017-05-08T10:40:50.139Z,20.9
2017-05-08T10:42:00.630Z,20.98
2017-05-08T10:43:11.220Z,20.92
2017-05-08T10:44:20.872Z,20.98
2017-05-08T10:45:30.863Z,20.9
2017-05-08T10:46:40.837Z,20.96
2017-05-08T10:47:51.169Z,20.88
2017-05-08T10:49:01.743Z,21.03
2017-05-08T10:50:11.725Z,21.03
2017-05-08T10:51:21.757Z,20.98
2017-05-08T10:52:31.796Z,21
2017-05-08T10:53:41.798Z,21.01
2017-05-08T10:54:52.037Z,20.96
2017-05-08T10:56:02.335Z,20.96
2017-05-08T10:57:12.624Z,21
2017-05-08T10:58:22.922Z,20.9
2017-05-08T10:59:32.296Z,20.92
2017-05-08T11:00:42.862Z,20.93
2017-05-08T11:01:52.870Z,20.9
2017-05-08T11:03:02.842Z,20.93
2017-05-08T11:04:12.890Z,21
2017-05-08T11:05:22.888Z,21.01
2017-05-08T11:06:32.813Z,20.93
2017-05-08T11:11:00.247Z,21
2017-05-08T11:12:11.047Z,20.95
2017-05-08T11:13:20.995Z,20.98
2017-05-08T11:14:31.258Z,21
2017-05-08T11:15:41.552Z,20.93
2017-05-08T11:16:51.842Z,20.95
2017-05-08T11:18:02.376Z,21.03
2017-05-08T11:19:11.722Z,21.03
2017-05-08T11:20:22.000Z,20.9
2017-05-08T11:21:31.971Z,20.9
2017-05-08T11:22:42.255Z,20.96
2017-05-08T11:23:52.202Z,20.98
2017-05-08T11:25:02.499Z,20.88
2017-05-08T11:26:12.470Z,21.04
2017-05-08T11:27:22.494Z,21
2017-05-08T11:28:32.465Z,20.96
2017-05-08T11:29:43.016Z,20.96
2017-05-08T11:30:53.031Z,21.03
2017-05-08T11:32:03.330Z,21.03
2017-05-08T11:33:13.325Z,21.08
2017-05-08T11:34:23.603Z,21.05
2017-05-08T11:35:34.141Z,21.08
2017-05-08T11:36:44.426Z,21.07
2017-05-08T11:37:54.714Z,21.04
2017-05-08T11:39:04.684Z,21.04
2017-05-08T11:40:14.975Z,21.01
2017-05-08T11:41:25.511Z,21.03
2017-05-08T11:42:35.785Z,21.03
2017-05-08T11:43:45.775Z,21
2017-05-08T11:44:56.068Z,20.98
2017-05-08T11:46:06.078Z,21.04
2017-05-08T11:47:16.610Z,21.03
2017-05-08T11:48:26.921Z,21.03
2017-05-08T11:49:37.218Z,21.05
2017-05-08T11:50:47.200Z,20.95
2017-05-08T11:51:57.485Z,21.14
2017-05-08T11:53:08.025Z,21.03
2017-05-08T11:54:18.310Z,21.03
2017-05-08T11:55:28.871Z,21.04
2017-05-08T11:56:38.849Z,21.08
2017-05-08T11:57:49.150Z,21.13
2017-05-08T11:58:59.696Z,21.03
2017-05-08T12:00:09.996Z,21.04
2017-05-08T12:01:20.292Z,21.04
2017-05-08T12:02:30.586Z,21.01
2017-05-08T12:03:40.566Z,21.03
2017-05-08T12:04:50.852Z,21.04
2017-05-08T12:06:01.157Z,21.01
2017-05-08T12:07:11.147Z,21.1
2017-05-08T12:08:21.137Z,21.08
2017-05-08T12:09:31.393Z,21.13
2017-05-08T12:10:41.929Z,21.04
2017-05-08T12:11:52.229Z,21.05
2017-05-08T12:13:02.206Z,21.07
2017-05-08T12:14:12.186Z,21.05
2017-05-08T12:15:22.461Z,20.98
2017-05-08T12:16:32.999Z,21.11
2017-05-08T12:17:42.967Z,21
2017-05-08T12:18:53.260Z,21.01
2017-05-08T12:20:03.555Z,20.92
2017-05-08T12:21:13.546Z,20.95
2017-05-08T12:22:24.085Z,20.96
2017-05-08T12:23:34.400Z,21.04
2017-05-08T12:24:44.734Z,21.07
2017-05-08T12:25:54.705Z,21.01
2017-05-08T12:27:04.991Z,20.98
2017-05-08T12:28:15.254Z,21.01
2017-05-08T12:29:25.570Z,21.01
2017-05-08T12:30:35.871Z,21.03
2017-05-08T12:31:46.157Z,21.03
2017-05-08T12:32:56.444Z,21
2017-05-08T12:34:06.688Z,20.98
2017-05-08T12:35:17.005Z,21.04
2017-05-08T12:36:27.320Z,21.03
2017-05-08T12:37:37.302Z,21.03
2017-05-08T12:38:47.586Z,20.95
2017-05-08T12:39:58.131Z,21.01
2017-05-08T12:41:08.119Z,21.07
2017-05-08T12:42:18.404Z,21
2017-05-08T12:43:28.391Z,21.05
2017-05-08T12:44:38.977Z,21.03
2017-05-08T12:45:49.571Z,21.01
2017-05-08T12:46:59.863Z,21.04
2017-05-08T12:48:10.166Z,21.03
2017-05-08T12:49:20.137Z,21.1
2017-05-08T12:50:30.458Z,21.05
2017-05-08T12:51:40.709Z,21.03
2017-05-08T12:52:51.022Z,21.1
2017-05-08T12:54:01.001Z,21.08
2017-05-08T12:55:11.289Z,21.05
2017-05-08T12:56:21.275Z,21.13
2017-05-08T12:57:31.503Z,21.05
2017-05-08T12:58:41.504Z,21.1
2017-05-08T12:59:51.810Z,21.14
2017-05-08T13:01:01.824Z,21.14
2017-05-08T13:02:12.152Z,21.13
2017-05-08T13:03:22.637Z,21.14
2017-05-08T13:04:32.614Z,21.03
2017-05-08T13:05:42.918Z,21.03
2017-05-08T13:06:53.212Z,21.11
2017-05-08T13:08:02.561Z,21.03
2017-05-08T13:09:13.116Z,21.11
2017-05-08T13:10:23.089Z,21.01
2017-05-08T13:11:33.369Z,21.01
2017-05-08T13:12:43.682Z,21.1
2017-05-08T13:13:53.961Z,21.08
2017-05-08T13:15:04.523Z,21.04
2017-05-08T13:16:14.815Z,21.15
2017-05-08T13:17:25.125Z,21.08
2017-05-08T13:18:35.416Z,21.08
2017-05-08T13:19:45.723Z,21.1
2017-05-08T13:20:55.963Z,20.98
2017-05-08T13:22:05.948Z,21.13
2017-05-08T13:23:16.233Z,21.04
2017-05-08T13:24:26.536Z,21.01
2017-05-08T13:25:36.819Z,21.07
2017-05-08T13:26:47.033Z,21
2017-05-08T13:27:57.330Z,20.93
2017-05-08T13:29:07.326Z,20.95
2017-05-08T13:30:17.627Z,20.98
2017-05-08T13:31:27.910Z,20.93
2017-05-08T13:32:38.456Z,20.9
2017-05-08T13:33:47.823Z,20.92
2017-05-08T13:34:58.105Z,20.98
2017-05-08T13:36:08.091Z,20.9
2017-05-08T13:37:18.383Z,20.86
2017-05-08T13:38:28.918Z,20.85
2017-05-08T13:39:39.457Z,20.89
2017-05-08T13:40:49.445Z,20.95
2017-05-08T13:41:59.465Z,20.89
2017-05-08T13:43:09.437Z,20.86
2017-05-08T13:44:19.983Z,20.93
2017-05-08T13:45:30.266Z,20.9
2017-05-08T13:46:40.242Z,20.92
2017-05-08T13:47:50.541Z,20.9
2017-05-08T13:49:00.811Z,20.88
2017-05-08T13:50:11.368Z,20.85
2017-05-08T13:51:21.671Z,20.82
2017-05-08T13:52:31.951Z,20.78
2017-05-08T13:53:42.240Z,20.75
2017-05-08T13:54:52.526Z,20.78
2017-05-08T13:56:02.742Z,20.78
2017-05-08T13:57:12.716Z,20.68
2017-05-08T13:58:22.998Z,20.73
2017-05-08T13:59:33.284Z,20.73
2017-05-08T14:00:43.577Z,20.8
2017-05-08T14:01:53.865Z,20.8
2017-05-08T14:03:03.843Z,20.7
2017-05-08T14:04:13.825Z,20.78
2017-05-08T14:05:23.790Z,20.75
2017-05-08T14:06:34.092Z,20.8
2017-05-08T14:07:44.625Z,20.8
2017-05-08T14:08:54.911Z,20.77
2017-05-08T14:10:04.893Z,20.74
2017-05-08T14:11:14.874Z,20.71
2017-05-08T14:12:24.851Z,20.75
2017-05-08T14:13:35.395Z,20.8
2017-05-08T14:14:45.047Z,20.77
2017-05-08T14:15:55.329Z,20.75
2017-05-08T14:17:05.318Z,20.85
2017-05-08T14:18:15.328Z,20.78
2017-05-08T14:19:25.551Z,20.82
2017-05-08T14:20:35.526Z,20.85
2017-05-08T14:21:45.824Z,20.82
2017-05-08T14:22:56.106Z,20.86
2017-05-08T14:24:06.383Z,20.86
2017-05-08T14:25:16.918Z,20.89
2017-05-08T14:26:27.235Z,20.77
2017-05-08T14:27:37.575Z,20.8
2017-05-08T14:28:47.569Z,20.85
2017-05-08T14:29:57.859Z,20.78
2017-05-08T14:31:08.394Z,20.77
2017-05-08T14:32:18.354Z,20.86
2017-05-08T14:33:28.637Z,20.77
2017-05-08T14:34:38.916Z,20.77
2017-05-08T14:35:48.889Z,20.75
2017-05-08T14:36:59.435Z,20.74
2017-05-08T14:38:09.715Z,20.74
2017-05-08T14:39:20.016Z,20.73
2017-05-08T14:40:30.296Z,20.75
2017-05-08T14:41:40.269Z,20.66
2017-05-08T14:42:50.483Z,20.75
2017-05-08T14:44:00.766Z,20.68
2017-05-08T14:45:10.740Z,20.78
2017-05-08T14:46:21.048Z,20.82
2017-05-08T14:47:31.362Z,20.74
2017-05-08T14:48:41.578Z,20.75
2017-05-08T14:49:51.866Z,20.75
2017-05-08T14:51:01.832Z,20.7
2017-05-08T14:52:12.117Z,20.67
2017-05-08T14:53:22.413Z,20.71
2017-05-08T14:54:32.960Z,20.64
2017-05-08T14:55:43.232Z,20.68
2017-05-08T14:56:53.536Z,20.66
2017-05-08T14:58:03.812Z,20.66
2017-05-08T14:59:14.099Z,20.67
2017-05-08T15:00:24.314Z,20.6
2017-05-08T15:01:34.298Z,20.64
2017-05-08T15:02:44.584Z,20.64
2017-05-08T15:03:54.873Z,20.67
2017-05-08T15:05:04.238Z,20.67
2017-05-08T15:06:14.800Z,20.71
2017-05-08T15:07:24.770Z,20.64
2017-05-08T15:08:35.063Z,20.66
2017-05-08T15:09:45.358Z,20.67
2017-05-08T15:10:55.334Z,20.59
2017-05-08T15:12:05.888Z,20.6
2017-05-08T15:13:16.170Z,20.59
2017-05-08T15:14:26.453Z,20.63